Time;durP1;ratioP1;P1;durP2;ratioP2;P2;SDS_P1;SDS_P2;PMS_P1;PMS_P2;Temp;Humidity;BMP_temperature;BMP_pressure;BME280_temperature;BME280_humidity;BME280_pressure;Samples;Min_cycle;Max_cycle;Signal;HPM_P1;HPM_P2
2023/08/20 00:01:25;;;;;;;3.47;2.10;;;;;;;;;;5023177;28;20128;-60
2023/08/20 00:03:53;;;;;;;4.88;2.00;;;;;;;;;;5023179;28;20058;-58
2023/08/20 00:06:19;;;;;;;8.50;2.40;;;;;;;;;;5022771;28;20511;-63
2023/08/20 00:08:46;;;;;;;7.18;2.67;;;;;;;;;;5026589;28;20173;-61
2023/08/20 00:11:13;;;;;;;4.97;2.28;;;;;;;;;;5016202;28;20055;-59
2023/08/20 00:13:40;;;;;;;7.13;2.50;;;;;;;;;;5004957;28;20051;-62
2023/08/20 00:16:07;;;;;;;6.63;2.45;;;;;;;;;;5003398;28;20054;-61
2023/08/20 00:18:33;;;;;;;5.70;2.45;;;;;;;;;;5003434;28;20058;-63
2023/08/20 00:21:04;;;;;;;4.20;2.35;;;;;;;;;;5002989;28;20097;-55
2023/08/20 00:23:31;;;;;;;4.25;2.03;;;;;;;;;;5012195;28;20053;-64
2023/08/20 00:25:57;;;;;;;8.27;2.42;;;;;;;;;;5041170;28;20058;-64
2023/08/20 00:28:24;;;;;;;6.75;2.30;;;;;;;;;;5022150;28;20523;-63
2023/08/20 00:30:51;;;;;;;10.98;2.35;;;;;;;;;;5022900;28;20112;-65
2023/08/20 00:33:17;;;;;;;8.02;2.58;;;;;;;;;;5022470;28;20129;-56
2023/08/20 00:35:44;;;;;;;8.32;2.30;;;;;;;;;;5021478;28;20054;-66
2023/08/20 00:38:10;;;;;;;4.80;2.20;;;;;;;;;;5025444;28;20062;-57
2023/08/20 00:40:36;;;;;;;7.25;2.50;;;;;;;;;;5031007;28;20061;-67
2023/08/20 00:43:03;;;;;;;5.70;2.15;;;;;;;;;;5003339;28;20792;-65
2023/08/20 00:45:30;;;;;;;7.30;2.75;;;;;;;;;;5002832;28;20046;-62
2023/08/20 00:47:56;;;;;;;6.72;2.53;;;;;;;;;;5024011;28;20054;-63
2023/08/20 00:50:23;;;;;;;7.90;2.28;;;;;;;;;;5025406;28;20060;-65
2023/08/20 00:52:49;;;;;;;6.30;2.63;;;;;;;;;;5018224;28;20600;-66
2023/08/20 00:55:16;;;;;;;5.63;2.30;;;;;;;;;;5013315;28;20061;-62
2023/08/20 00:57:42;;;;;;;9.73;2.88;;;;;;;;;;5025795;28;20097;-60
2023/08/20 01:00:10;;;;;;;8.52;2.75;;;;;;;;;;5026403;28;20058;-68
2023/08/20 01:02:38;;;;;;;7.45;2.60;;;;;;;;;;5024705;28;20358;-65
2023/08/20 01:05:07;;;;;;;4.25;2.17;;;;;;;;;;5025854;28;20057;-67
2023/08/20 01:07:39;;;;;;;6.38;2.50;;;;;;;;;;5039661;28;20076;-65
2023/08/20 01:10:05;;;;;;;7.25;2.35;;;;;;;;;;5007212;28;20054;-62
2023/08/20 01:12:33;;;;;;;4.97;2.20;;;;;;;;;;5006116;28;20117;-66
2023/08/20 01:15:00;;;;;;;7.03;2.30;;;;;;;;;;5006093;28;20054;-67
2023/08/20 01:17:27;;;;;;;7.55;2.42;;;;;;;;;;5005998;28;20391;-68
2023/08/20 01:19:53;;;;;;;7.35;3.03;;;;;;;;;;5005538;28;20163;-67
2023/08/20 01:22:19;;;;;;;6.75;2.38;;;;;;;;;;5022185;28;20524;-60
2023/08/20 01:24:52;;;;;;;7.68;3.38;;;;;;;;;;5033040;28;20057;-65
2023/08/20 01:27:26;;;;;;;11.40;3.22;;;;;;;;;;5045149;28;20084;-64
2023/08/20 01:29:53;;;;;;;7.13;2.83;;;;;;;;;;5044928;28;20054;-60
2023/08/20 01:32:19;;;;;;;7.65;2.88;;;;;;;;;;5044906;28;20070;-67
2023/08/20 01:34:48;;;;;;;8.52;2.83;;;;;;;;;;5038183;28;20163;-66
2023/08/20 01:37:14;;;;;;;9.30;3.03;;;;;;;;;;5023362;28;20163;-67
2023/08/20 01:39:41;;;;;;;7.63;2.97;;;;;;;;;;5025263;28;20057;-64
2023/08/20 01:42:07;;;;;;;7.45;2.80;;;;;;;;;;5024825;28;20855;-66
2023/08/20 01:44:33;;;;;;;10.18;3.00;;;;;;;;;;5021501;28;20136;-67
2023/08/20 01:47:00;;;;;;;7.30;2.35;;;;;;;;;;5025323;28;20483;-66
2023/08/20 01:49:27;;;;;;;6.63;2.35;;;;;;;;;;5015054;28;20825;-67
2023/08/20 01:51:53;;;;;;;7.55;2.45;;;;;;;;;;5034576;28;20566;-65
2023/08/20 01:54:19;;;;;;;7.80;2.47;;;;;;;;;;5024848;28;20054;-65
2023/08/20 01:56:46;;;;;;;5.75;2.47;;;;;;;;;;5024850;28;20057;-61
2023/08/20 01:59:12;;;;;;;6.72;2.47;;;;;;;;;;5024998;28;20050;-67
2023/08/20 02:01:39;;;;;;;7.22;1.75;;;;;;;;;;5022765;28;20144;-65
2023/08/20 02:04:05;;;;;;;10.13;2.35;;;;;;;;;;5024452;28;20707;-59
2023/08/20 02:06:31;;;;;;;7.68;2.28;;;;;;;;;;5023738;28;20493;-67
2023/08/20 02:08:58;;;;;;;5.13;2.00;;;;;;;;;;5009762;28;20501;-66
2023/08/20 02:11:24;;;;;;;5.43;1.90;;;;;;;;;;5018185;28;20109;-60
2023/08/20 02:13:51;;;;;;;6.93;2.30;;;;;;;;;;5024247;28;20690;-67
2023/08/20 02:16:17;;;;;;;8.38;2.25;;;;;;;;;;5023665;28;20133;-57
2023/08/20 02:18:44;;;;;;;6.90;2.65;;;;;;;;;;5004128;28;20047;-63
2023/08/20 02:21:10;;;;;;;6.97;1.92;;;;;;;;;;5016897;28;20812;-67
2023/08/20 02:23:37;;;;;;;10.40;2.67;;;;;;;;;;5024175;28;20050;-66
2023/08/20 02:26:03;;;;;;;5.85;2.45;;;;;;;;;;5022832;28;20086;-61
2023/08/20 02:28:30;;;;;;;5.25;2.22;;;;;;;;;;5024815;28;20060;-61
2023/08/20 02:30:57;;;;;;;5.97;2.47;;;;;;;;;;5021404;28;20050;-66
2023/08/20 02:33:24;;;;;;;6.75;2.33;;;;;;;;;;5007882;28;20057;-66
2023/08/20 02:35:50;;;;;;;7.13;2.90;;;;;;;;;;5024197;28;20054;-65
2023/08/20 02:38:17;;;;;;;5.03;2.17;;;;;;;;;;5022021;28;20512;-63
2023/08/20 02:40:43;;;;;;;7.60;2.78;;;;;;;;;;5022872;28;20064;-67
2023/08/20 02:43:10;;;;;;;6.93;2.80;;;;;;;;;;5023592;28;20060;-67
2023/08/20 02:45:41;;;;;;;6.38;2.40;;;;;;;;;;5024013;28;20096;-60
2023/08/20 02:48:07;;;;;;;5.47;2.35;;;;;;;;;;5037175;28;20136;-66
2023/08/20 02:50:34;;;;;;;5.95;2.22;;;;;;;;;;5026480;28;20097;-64
2023/08/20 02:53:00;;;;;;;6.60;2.35;;;;;;;;;;5021510;28;20873;-66
2023/08/20 02:55:27;;;;;;;6.05;2.83;;;;;;;;;;5043754;28;20053;-65
2023/08/20 02:57:53;;;;;;;9.07;2.53;;;;;;;;;;5023619;28;20144;-62
2023/08/20 03:00:19;;;;;;;5.60;2.60;;;;;;;;;;5013203;28;20062;-66
2023/08/20 03:02:46;;;;;;;8.23;2.58;;;;;;;;;;5028316;28;20159;-67
2023/08/20 03:05:12;;;;;;;9.45;3.05;;;;;;;;;;5043971;28;20504;-65
2023/08/20 03:07:39;;;;;;;10.60;2.92;;;;;;;;;;5044648;28;20144;-68
2023/08/20 03:10:06;;;;;;;7.00;3.22;;;;;;;;;;5042051;28;20057;-56
2023/08/20 03:12:32;;;;;;;6.28;2.67;;;;;;;;;;5024730;28;20133;-65
2023/08/20 03:14:59;;;;;;;6.70;2.88;;;;;;;;;;5023268;28;20054;-58
2023/08/20 03:17:25;;;;;;;7.22;2.75;;;;;;;;;;5022272;28;20046;-64
2023/08/20 03:19:59;;;;;;;9.00;2.75;;;;;;;;;;5003940;28;20093;-66
2023/08/20 03:22:26;;;;;;;9.00;3.05;;;;;;;;;;5003755;28;20065;-66
2023/08/20 03:24:53;;;;;;;5.45;2.60;;;;;;;;;;5018448;28;20054;-67
2023/08/20 03:27:20;;;;;;;6.68;2.42;;;;;;;;;;5022868;28;20496;-63
2023/08/20 03:29:46;;;;;;;6.25;2.53;;;;;;;;;;5023373;28;20112;-60
2023/08/20 03:32:12;;;;;;;5.03;2.75;;;;;;;;;;5023444;28;20141;-66
2023/08/20 03:34:39;;;;;;;5.97;2.38;;;;;;;;;;5022770;28;20058;-65
2023/08/20 03:37:05;;;;;;;6.88;2.55;;;;;;;;;;5021763;28;20057;-53
2023/08/20 03:39:31;;;;;;;7.97;2.50;;;;;;;;;;5019833;28;20131;-67
2023/08/20 03:41:58;;;;;;;7.05;2.28;;;;;;;;;;5023100;28;20058;-66
2023/08/20 03:44:24;;;;;;;6.88;2.50;;;;;;;;;;5024053;28;20604;-59
2023/08/20 03:46:51;;;;;;;10.57;2.95;;;;;;;;;;5039412;28;20139;-67
2023/08/20 03:49:17;;;;;;;9.60;2.70;;;;;;;;;;5043422;28;20159;-60
2023/08/20 03:51:43;;;;;;;8.63;2.88;;;;;;;;;;5030639;28;20045;-60
2023/08/20 03:54:10;;;;;;;6.15;2.22;;;;;;;;;;5022765;28;20534;-68
2023/08/20 03:56:36;;;;;;;5.00;2.05;;;;;;;;;;5022250;28;20046;-58
2023/08/20 03:59:03;;;;;;;7.95;2.38;;;;;;;;;;5027634;28;20061;-62
2023/08/20 04:01:30;;;;;;;5.13;2.33;;;;;;;;;;5031663;28;20057;-67
2023/08/20 04:03:56;;;;;;;14.20;2.50;;;;;;;;;;5004563;28;20058;-67
2023/08/20 04:06:23;;;;;;;16.20;3.42;;;;;;;;;;5003341;28;20175;-66
2023/08/20 04:08:49;;;;;;;11.00;2.72;;;;;;;;;;5018096;28;20448;-61
2023/08/20 04:11:16;;;;;;;11.23;2.70;;;;;;;;;;5005372;28;20050;-67
2023/08/20 04:13:43;;;;;;;9.20;2.60;;;;;;;;;;5017487;28;20289;-61
2023/08/20 04:16:10;;;;;;;6.78;2.42;;;;;;;;;;5023204;28;20136;-67
2023/08/20 04:18:36;;;;;;;8.38;2.53;;;;;;;;;;5011127;28;20062;-63
2023/08/20 04:21:02;;;;;;;5.82;2.08;;;;;;;;;;5022995;28;20081;-67
2023/08/20 04:23:29;;;;;;;11.02;2.72;;;;;;;;;;5023594;28;20054;-66
2023/08/20 04:25:55;;;;;;;7.47;2.33;;;;;;;;;;5027061;28;20128;-61
2023/08/20 04:28:22;;;;;;;10.27;3.00;;;;;;;;;;5010443;28;20512;-58
2023/08/20 04:30:49;;;;;;;6.30;2.42;;;;;;;;;;5011694;28;20087;-67
2023/08/20 04:33:15;;;;;;;12.33;3.73;;;;;;;;;;5026171;28;20058;-67
2023/08/20 04:35:42;;;;;;;12.00;3.17;;;;;;;;;;5020324;28;20646;-63
2023/08/20 04:38:08;;;;;;;5.38;2.63;;;;;;;;;;5006142;28;20055;-66
2023/08/20 04:40:35;;;;;;;11.60;2.70;;;;;;;;;;5006017;28;20062;-65
2023/08/20 04:43:01;;;;;;;8.48;2.55;;;;;;;;;;5014671;28;20049;-65
2023/08/20 04:45:28;;;;;;;9.40;2.45;;;;;;;;;;5042295;28;20137;-60
2023/08/20 04:47:54;;;;;;;8.82;3.47;;;;;;;;;;5044682;28;20434;-65
2023/08/20 04:50:21;;;;;;;6.82;2.50;;;;;;;;;;5042477;28;20054;-61
2023/08/20 04:52:47;;;;;;;8.15;3.00;;;;;;;;;;5026522;28;20135;-55
2023/08/20 04:55:15;;;;;;;7.07;2.58;;;;;;;;;;5021217;28;20523;-66
2023/08/20 04:57:41;;;;;;;5.38;2.25;;;;;;;;;;5015922;28;20100;-67
2023/08/20 05:00:09;;;;;;;7.32;2.47;;;;;;;;;;5025754;28;20060;-67
2023/08/20 05:02:36;;;;;;;4.65;2.38;;;;;;;;;;5009011;28;20054;-64
2023/08/20 05:05:03;;;;;;;8.07;2.90;;;;;;;;;;5022972;28;20061;-66
2023/08/20 05:07:29;;;;;;;7.28;2.83;;;;;;;;;;5026392;28;20062;-62
2023/08/20 05:09:56;;;;;;;12.80;3.47;;;;;;;;;;5032256;28;20050;-65
2023/08/20 05:12:22;;;;;;;5.05;2.33;;;;;;;;;;5042193;28;20057;-66
2023/08/20 05:14:48;;;;;;;9.30;3.25;;;;;;;;;;5028565;28;20054;-64
2023/08/20 05:17:15;;;;;;;9.68;3.15;;;;;;;;;;5036256;28;20058;-59
2023/08/20 05:19:41;;;;;;;6.80;2.65;;;;;;;;;;5020002;28;20582;-66
2023/08/20 05:22:08;;;;;;;4.85;2.83;;;;;;;;;;5023665;28;20050;-64
2023/08/20 05:24:34;;;;;;;5.68;2.65;;;;;;;;;;5010964;28;20082;-61
2023/08/20 05:27:14;;;;;;;10.57;3.28;;;;;;;;;;5023732;28;20140;-66
2023/08/20 05:29:40;;;;;;;6.88;3.00;;;;;;;;;;5023970;28;20056;-66
2023/08/20 05:32:08;;;;;;;7.30;2.47;;;;;;;;;;5024844;28;20058;-65
2023/08/20 05:34:34;;;;;;;8.77;3.00;;;;;;;;;;5024564;28;20060;-66
2023/08/20 05:37:01;;;;;;;5.15;3.00;;;;;;;;;;5021648;28;20077;-65
2023/08/20 05:39:27;;;;;;;14.48;4.88;;;;;;;;;;5040318;28;20126;-64
2023/08/20 05:41:54;;;;;;;12.55;3.65;;;;;;;;;;5024335;28;20108;-67
2023/08/20 05:44:21;;;;;;;8.07;3.13;;;;;;;;;;5024595;28;20054;-63
2023/08/20 05:46:47;;;;;;;6.38;3.72;;;;;;;;;;5024987;28;20050;-58
2023/08/20 05:49:15;;;;;;;7.40;3.13;;;;;;;;;;5023606;28;20129;-62
2023/08/20 05:51:43;;;;;;;7.18;3.42;;;;;;;;;;5009442;28;20058;-60
2023/08/20 05:54:09;;;;;;;9.60;3.05;;;;;;;;;;5010690;28;20049;-62
2023/08/20 05:56:36;;;;;;;11.48;3.20;;;;;;;;;;5024461;28;20084;-62
2023/08/20 05:59:02;;;;;;;6.65;3.22;;;;;;;;;;5017486;28;20176;-66
2023/08/20 06:01:29;;;;;;;10.45;3.60;;;;;;;;;;5014284;28;20058;-65
2023/08/20 06:03:55;;;;;;;12.95;2.92;;;;;;;;;;5005109;28;20054;-66
2023/08/20 06:06:22;;;;;;;9.45;2.80;;;;;;;;;;5004760;28;20066;-66
2023/08/20 06:08:48;;;;;;;8.13;3.10;;;;;;;;;;5003978;28;20568;-63
2023/08/20 06:11:33;;;;;;;6.38;2.40;;;;;;;;;;5021627;28;20574;-61
2023/08/20 06:13:59;;;;;;;6.40;2.78;;;;;;;;;;5010059;28;20152;-66
2023/08/20 06:16:25;;;;;;;9.00;2.95;;;;;;;;;;5004465;28;20065;-66
2023/08/20 06:18:52;;;;;;;19.30;2.92;;;;;;;;;;5004820;28;20058;-60
2023/08/20 06:21:22;;;;;;;6.13;2.53;;;;;;;;;;5004606;28;20057;-68
2023/08/20 06:23:48;;;;;;;7.57;2.67;;;;;;;;;;5004000;28;20105;-67
2023/08/20 06:26:15;;;;;;;7.35;2.50;;;;;;;;;;5004897;28;20595;-65
2023/08/20 06:28:41;;;;;;;7.85;2.30;;;;;;;;;;5021281;28;20831;-66
2023/08/20 06:31:08;;;;;;;11.05;2.80;;;;;;;;;;5024123;28;20088;-67
2023/08/20 06:33:34;;;;;;;7.50;2.13;;;;;;;;;;5024215;28;20053;-64
2023/08/20 06:36:01;;;;;;;9.65;2.38;;;;;;;;;;5020779;28;20543;-63
2023/08/20 06:38:27;;;;;;;9.70;2.58;;;;;;;;;;5023494;28;20054;-66
2023/08/20 06:40:53;;;;;;;7.88;2.72;;;;;;;;;;5013870;28;20964;-65
2023/08/20 06:43:20;;;;;;;11.32;2.53;;;;;;;;;;5035558;28;20140;-59
2023/08/20 06:45:46;;;;;;;7.47;2.15;;;;;;;;;;5044051;28;20057;-67
2023/08/20 06:48:13;;;;;;;9.07;2.22;;;;;;;;;;5043554;28;20049;-62
2023/08/20 06:50:41;;;;;;;6.10;2.30;;;;;;;;;;5039848;28;20057;-59
2023/08/20 06:53:07;;;;;;;11.15;2.42;;;;;;;;;;5036689;28;20073;-66
2023/08/20 06:55:34;;;;;;;13.55;2.67;;;;;;;;;;5043586;28;20081;-60
2023/08/20 06:58:01;;;;;;;5.93;2.15;;;;;;;;;;5021205;28;20061;-64
2023/08/20 07:00:28;;;;;;;7.95;2.55;;;;;;;;;;5027391;28;20061;-67
2023/08/20 07:02:54;;;;;;;8.73;2.55;;;;;;;;;;5016842;28;20051;-66
2023/08/20 07:05:21;;;;;;;10.05;2.17;;;;;;;;;;5022580;28;20050;-64
2023/08/20 07:07:47;;;;;;;7.72;2.58;;;;;;;;;;5028638;28;20062;-56
2023/08/20 07:10:14;;;;;;;9.88;2.22;;;;;;;;;;5020767;28;20058;-65
2023/08/20 07:12:40;;;;;;;6.82;2.33;;;;;;;;;;5006350;28;20576;-63
2023/08/20 07:15:07;;;;;;;14.40;2.63;;;;;;;;;;5034647;28;20081;-67
2023/08/20 07:17:33;;;;;;;4.50;2.00;;;;;;;;;;5022820;28;20057;-66
2023/08/20 07:20:00;;;;;;;10.35;1.95;;;;;;;;;;5022996;28;20521;-66
2023/08/20 07:22:26;;;;;;;11.32;2.45;;;;;;;;;;5022190;28;20050;-64
2023/08/20 07:24:53;;;;;;;12.00;2.10;;;;;;;;;;5021510;28;20064;-65
2023/08/20 07:27:19;;;;;;;9.52;2.28;;;;;;;;;;5019114;28;20113;-65
2023/08/20 07:29:46;;;;;;;11.13;2.25;;;;;;;;;;5023154;28;20049;-64
2023/08/20 07:32:12;;;;;;;6.53;1.88;;;;;;;;;;5034240;28;20168;-60
2023/08/20 07:34:39;;;;;;;6.70;2.05;;;;;;;;;;5032998;28;20068;-65
2023/08/20 07:37:06;;;;;;;11.13;2.05;;;;;;;;;;5021569;28;20085;-56
2023/08/20 07:39:32;;;;;;;9.95;2.08;;;;;;;;;;5020766;28;20061;-67
2023/08/20 07:42:00;;;;;;;6.30;1.73;;;;;;;;;;5036824;28;20050;-66
2023/08/20 07:44:27;;;;;;;6.60;2.22;;;;;;;;;;5016257;28;20683;-67
2023/08/20 07:46:54;;;;;;;6.55;1.88;;;;;;;;;;5024952;28;20496;-60
2023/08/20 07:49:20;;;;;;;5.60;1.70;;;;;;;;;;5022598;28;20050;-67
2023/08/20 07:51:48;;;;;;;11.05;2.15;;;;;;;;;;5022056;28;20058;-67
2023/08/20 07:54:14;;;;;;;8.95;1.60;;;;;;;;;;5026549;28;20053;-67
2023/08/20 07:56:41;;;;;;;7.03;1.75;;;;;;;;;;5023117;28;20082;-63
2023/08/20 07:59:07;;;;;;;3.95;1.63;;;;;;;;;;5027963;28;20872;-67
2023/08/20 08:01:34;;;;;;;8.98;1.75;;;;;;;;;;5020119;28;20061;-68
2023/08/20 08:04:00;;;;;;;5.88;1.73;;;;;;;;;;5016896;28;20573;-64
2023/08/20 08:06:27;;;;;;;6.55;1.45;;;;;;;;;;5011128;28;20058;-62
2023/08/20 08:08:53;;;;;;;12.57;1.90;;;;;;;;;;5019955;28;20057;-63
2023/08/20 08:11:20;;;;;;;8.00;1.60;;;;;;;;;;5019495;28;20057;-64
2023/08/20 08:13:46;;;;;;;9.98;1.77;;;;;;;;;;5017365;28;20058;-62
2023/08/20 08:16:13;;;;;;;6.45;1.63;;;;;;;;;;5024629;28;20511;-65
2023/08/20 08:18:39;;;;;;;7.00;1.60;;;;;;;;;;5023847;28;20054;-64
2023/08/20 08:21:06;;;;;;;9.35;2.30;;;;;;;;;;5022622;28;20050;-62
2023/08/20 08:23:32;;;;;;;8.65;1.65;;;;;;;;;;5021751;28;20065;-67
2023/08/20 08:25:59;;;;;;;5.55;1.58;;;;;;;;;;5014135;28;20058;-65
2023/08/20 08:28:25;;;;;;;5.85;1.58;;;;;;;;;;5018168;28;20058;-63
2023/08/20 08:30:52;;;;;;;4.00;1.30;;;;;;;;;;5023952;28;20144;-66
2023/08/20 08:33:18;;;;;;;8.77;1.65;;;;;;;;;;5024245;28;20541;-65
2023/08/20 08:35:45;;;;;;;6.20;1.38;;;;;;;;;;5024045;28;20073;-65
2023/08/20 08:38:11;;;;;;;3.33;1.25;;;;;;;;;;5040217;28;20057;-62
2023/08/20 08:40:40;;;;;;;8.32;1.40;;;;;;;;;;5028225;28;20046;-65
2023/08/20 08:43:14;;;;;;;3.58;1.05;;;;;;;;;;5023537;28;20069;-59
2023/08/20 08:45:40;;;;;;;3.83;1.15;;;;;;;;;;5024736;28;20065;-61
2023/08/20 08:48:08;;;;;;;5.78;1.67;;;;;;;;;;5022948;28;20595;-61
2023/08/20 08:50:34;;;;;;;5.70;1.67;;;;;;;;;;5023532;28;20057;-63
2023/08/20 08:53:00;;;;;;;3.85;1.25;;;;;;;;;;5016535;28;20050;-66
2023/08/20 08:55:27;;;;;;;9.20;1.40;;;;;;;;;;5027237;28;20510;-63
2023/08/20 08:57:53;;;;;;;6.38;1.45;;;;;;;;;;5020437;28;20065;-63
2023/08/20 09:00:20;;;;;;;5.00;1.48;;;;;;;;;;5016600;28;20150;-65
2023/08/20 09:02:46;;;;;;;3.53;0.93;;;;;;;;;;5016533;28;20108;-64
2023/08/20 09:05:13;;;;;;;3.50;1.00;;;;;;;;;;5015616;28;20497;-63
2023/08/20 09:07:44;;;;;;;4.00;0.90;;;;;;;;;;5024057;28;20169;-61
2023/08/20 09:10:11;;;;;;;5.85;1.20;;;;;;;;;;5022974;28;20050;-62
2023/08/20 09:12:37;;;;;;;11.88;1.90;;;;;;;;;;5024134;28;20493;-66
2023/08/20 09:15:09;;;;;;;6.13;1.15;;;;;;;;;;5023358;28;20521;-66
2023/08/20 09:17:35;;;;;;;3.80;1.23;;;;;;;;;;5028896;28;20594;-61
2023/08/20 09:20:02;;;;;;;5.30;1.25;;;;;;;;;;5024935;28;20056;-67
2023/08/20 09:22:29;;;;;;;4.68;1.10;;;;;;;;;;5024295;28;20581;-64
2023/08/20 09:24:56;;;;;;;2.60;1.02;;;;;;;;;;5026835;28;20061;-60
2023/08/20 09:27:23;;;;;;;3.22;1.30;;;;;;;;;;5026992;28;20049;-65
2023/08/20 09:29:51;;;;;;;2.53;1.13;;;;;;;;;;5024030;28;20157;-61
2023/08/20 09:32:19;;;;;;;5.03;1.02;;;;;;;;;;5024349;28;20878;-59
2023/08/20 09:34:45;;;;;;;4.90;1.33;;;;;;;;;;5020650;28;20057;-61
2023/08/20 09:37:12;;;;;;;4.53;1.52;;;;;;;;;;5023946;28;20355;-63
2023/08/20 09:39:39;;;;;;;1.50;0.77;;;;;;;;;;5014693;28;20049;-38
2023/08/20 09:42:06;;;;;;;5.95;1.20;;;;;;;;;;5028160;28;20085;-61
2023/08/20 09:44:36;;;;;;;5.25;1.77;;;;;;;;;;5025518;28;20113;-66
2023/08/20 09:47:05;;;;;;;7.47;1.40;;;;;;;;;;5023555;28;20057;-66
2023/08/20 09:49:35;;;;;;;5.70;1.00;;;;;;;;;;5023753;28;20472;-61
2023/08/20 09:52:04;;;;;;;5.05;1.30;;;;;;;;;;5024112;28;20057;-58
2023/08/20 09:54:37;;;;;;;3.80;1.17;;;;;;;;;;5033218;28;20081;-63
2023/08/20 09:57:07;;;;;;;2.72;1.20;;;;;;;;;;5023732;28;20058;-63
2023/08/20 09:59:35;;;;;;;3.35;1.10;;;;;;;;;;5023630;28;20058;-62
2023/08/20 10:02:02;;;;;;;5.05;1.33;;;;;;;;;;5023735;28;20069;-66
2023/08/20 10:04:29;;;;;;;7.90;1.45;;;;;;;;;;5026649;28;20061;-61
2023/08/20 10:06:57;;;;;;;5.80;1.30;;;;;;;;;;5022799;28;20064;-65
2023/08/20 10:09:24;;;;;;;4.55;1.15;;;;;;;;;;5017531;28;20085;-61
2023/08/20 10:11:50;;;;;;;6.10;1.90;;;;;;;;;;5023041;28;20559;-64
2023/08/20 10:14:17;;;;;;;4.85;1.27;;;;;;;;;;5019334;28;20116;-66
2023/08/20 10:16:43;;;;;;;2.67;1.00;;;;;;;;;;5023200;28;20054;-63
2023/08/20 10:19:09;;;;;;;4.63;1.17;;;;;;;;;;5026385;28;20116;-62
2023/08/20 10:21:36;;;;;;;4.45;1.77;;;;;;;;;;5024553;28;20524;-65
2023/08/20 10:24:06;;;;;;;4.90;1.25;;;;;;;;;;5024723;28;20050;-66
2023/08/20 10:26:33;;;;;;;1.88;1.08;;;;;;;;;;5024121;28;20065;-65
2023/08/20 10:29:19;;;;;;;3.58;1.10;;;;;;;;;;5023101;28;20566;-66
2023/08/20 10:31:46;;;;;;;3.55;1.02;;;;;;;;;;5023380;28;20143;-65
2023/08/20 10:34:21;;;;;;;4.72;1.20;;;;;;;;;;5032858;28;20050;-66
2023/08/20 10:36:49;;;;;;;2.05;0.95;;;;;;;;;;5009161;28;20132;-61
2023/08/20 10:39:20;;;;;;;5.93;1.08;;;;;;;;;;5021387;28;20058;-65
2023/08/20 10:41:46;;;;;;;3.85;0.90;;;;;;;;;;5023257;28;20054;-64
2023/08/20 10:44:14;;;;;;;5.13;1.05;;;;;;;;;;5025869;28;20053;-62
2023/08/20 10:46:49;;;;;;;5.63;1.10;;;;;;;;;;5021737;28;20194;-40
2023/08/20 10:49:16;;;;;;;2.13;0.85;;;;;;;;;;5015499;28;20058;-42
2023/08/20 10:51:48;;;;;;;4.10;1.60;;;;;;;;;;5018229;28;20544;-40
2023/08/20 10:54:14;;;;;;;2.42;0.85;;;;;;;;;;5030827;28;20580;-40
2023/08/20 10:56:41;;;;;;;4.45;1.20;;;;;;;;;;5020737;28;20053;-43
2023/08/20 10:59:08;;;;;;;2.60;1.00;;;;;;;;;;5021057;28;20058;-39
2023/08/20 11:01:35;;;;;;;3.97;1.45;;;;;;;;;;5029176;28;20080;-39
2023/08/20 11:04:06;;;;;;;3.90;1.20;;;;;;;;;;5015847;28;20597;-40
2023/08/20 11:06:32;;;;;;;4.47;1.08;;;;;;;;;;5024671;28;20111;-39
2023/08/20 11:08:59;;;;;;;3.88;1.13;;;;;;;;;;5031979;28;20058;-40
2023/08/20 11:11:25;;;;;;;4.80;1.33;;;;;;;;;;5028440;28;20544;-39
2023/08/20 11:13:52;;;;;;;5.32;1.27;;;;;;;;;;5016178;28;20445;-39
2023/08/20 11:16:19;;;;;;;3.45;0.93;;;;;;;;;;5012884;28;20141;-41
2023/08/20 11:18:45;;;;;;;5.00;1.63;;;;;;;;;;5012283;28;20058;-40
2023/08/20 11:21:12;;;;;;;2.05;0.90;;;;;;;;;;5025831;28;20137;-65
2023/08/20 11:23:41;;;;;;;8.48;1.38;;;;;;;;;;5029291;28;20061;-66
2023/08/20 11:26:07;;;;;;;3.33;0.98;;;;;;;;;;5020553;28;20058;-65
2023/08/20 11:28:34;;;;;;;4.95;1.45;;;;;;;;;;5013442;28;20054;-66
2023/08/20 11:31:01;;;;;;;3.78;1.40;;;;;;;;;;5014656;28;20448;-64
2023/08/20 11:33:28;;;;;;;3.50;1.00;;;;;;;;;;5027617;28;20644;-65
2023/08/20 11:35:54;;;;;;;6.15;1.40;;;;;;;;;;5023623;28;20100;-39
2023/08/20 11:38:24;;;;;;;6.03;1.60;;;;;;;;;;5028148;28;20116;-67
2023/08/20 11:40:51;;;;;;;3.58;1.20;;;;;;;;;;5020156;28;20545;-66
2023/08/20 11:43:18;;;;;;;2.63;1.20;;;;;;;;;;5022574;28;20053;-61
2023/08/20 11:45:48;;;;;;;6.70;1.33;;;;;;;;;;5002392;28;20624;-61
2023/08/20 11:48:15;;;;;;;3.25;1.15;;;;;;;;;;5017905;28;20167;-62
2023/08/20 11:50:42;;;;;;;4.07;1.13;;;;;;;;;;5021467;28;20061;-64
2023/08/20 11:53:09;;;;;;;3.78;1.02;;;;;;;;;;5019460;28;20054;-65
2023/08/20 11:55:37;;;;;;;2.45;0.80;;;;;;;;;;5020988;28;20538;-65
2023/08/20 11:58:03;;;;;;;5.97;1.45;;;;;;;;;;5017866;28;20057;-39
2023/08/20 12:00:31;;;;;;;6.20;1.20;;;;;;;;;;5020094;28;20132;-65
2023/08/20 12:02:57;;;;;;;2.65;1.02;;;;;;;;;;5021608;28;20065;-64
2023/08/20 12:05:27;;;;;;;4.78;1.00;;;;;;;;;;5020079;28;20504;-65
2023/08/20 12:07:55;;;;;;;3.85;1.00;;;;;;;;;;5009348;28;20546;-63
2023/08/20 12:10:22;;;;;;;3.38;1.20;;;;;;;;;;5032407;28;20070;-65
2023/08/20 12:12:49;;;;;;;4.10;1.40;;;;;;;;;;5015673;28;20050;-64
2023/08/20 12:15:16;;;;;;;3.42;1.27;;;;;;;;;;5018009;28;20065;-69
2023/08/20 12:17:43;;;;;;;3.40;1.10;;;;;;;;;;5025525;28;20058;-68
2023/08/20 12:20:12;;;;;;;5.20;1.30;;;;;;;;;;5029599;28;20526;-69
2023/08/20 12:22:39;;;;;;;5.10;1.58;;;;;;;;;;5027230;28;20054;-68
2023/08/20 12:25:06;;;;;;;3.00;1.30;;;;;;;;;;5030479;28;20368;-64
2023/08/20 12:27:33;;;;;;;6.75;1.58;;;;;;;;;;5030716;28;20058;-65
2023/08/20 12:30:01;;;;;;;2.80;1.33;;;;;;;;;;5026887;28;20050;-66
2023/08/20 12:32:27;;;;;;;4.68;0.98;;;;;;;;;;5028049;28;20061;-69
2023/08/20 12:34:54;;;;;;;2.35;0.70;;;;;;;;;;5023308;28;20104;-69
2023/08/20 12:37:20;;;;;;;2.45;1.05;;;;;;;;;;5035114;28;20065;-64
2023/08/20 12:39:47;;;;;;;1.95;0.95;;;;;;;;;;5021443;28;20502;-64
2023/08/20 12:42:13;;;;;;;4.45;1.77;;;;;;;;;;5025832;28;20057;-67
2023/08/20 12:44:40;;;;;;;1.98;1.05;;;;;;;;;;5032801;28;20123;-69
2023/08/20 12:47:06;;;;;;;2.60;1.20;;;;;;;;;;5024918;28;20056;-69
2023/08/20 12:49:33;;;;;;;8.05;1.90;;;;;;;;;;5034729;28;20054;-69
2023/08/20 12:52:00;;;;;;;3.42;1.45;;;;;;;;;;5039615;28;20527;-66
2023/08/20 12:54:26;;;;;;;3.28;1.08;;;;;;;;;;5015561;28;20496;-66
2023/08/20 12:56:52;;;;;;;4.93;1.10;;;;;;;;;;5023765;28;20085;-67
2023/08/20 12:59:19;;;;;;;3.28;1.15;;;;;;;;;;5035468;28;20101;-70
2023/08/20 13:01:46;;;;;;;4.55;1.13;;;;;;;;;;5022114;28;20133;-65
2023/08/20 13:04:13;;;;;;;2.85;1.30;;;;;;;;;;5013710;28;20432;-67
2023/08/20 13:06:40;;;;;;;3.80;1.30;;;;;;;;;;5011028;28;20500;-65
2023/08/20 13:09:06;;;;;;;3.33;0.80;;;;;;;;;;5032281;28;20356;-62
2023/08/20 13:11:33;;;;;;;4.53;1.33;;;;;;;;;;5023387;28;20058;-70
2023/08/20 13:14:00;;;;;;;4.53;1.20;;;;;;;;;;5023907;28;20060;-69
2023/08/20 13:16:26;;;;;;;4.38;1.17;;;;;;;;;;5024042;28;20133;-68
2023/08/20 13:18:53;;;;;;;3.03;1.15;;;;;;;;;;5017715;28;21220;-66
2023/08/20 13:21:21;;;;;;;2.40;0.82;;;;;;;;;;5024319;28;20058;-40
2023/08/20 13:23:47;;;;;;;4.85;1.40;;;;;;;;;;5022390;28;20152;-41
2023/08/20 13:26:14;;;;;;;3.72;1.20;;;;;;;;;;5017470;28;20054;-43
2023/08/20 13:28:40;;;;;;;3.65;0.95;;;;;;;;;;5022849;28;20605;-44
2023/08/20 13:31:07;;;;;;;4.80;1.15;;;;;;;;;;5020762;28;20054;-42
2023/08/20 13:33:34;;;;;;;4.10;1.00;;;;;;;;;;5023200;28;20613;-45
2023/08/20 13:36:01;;;;;;;3.78;0.90;;;;;;;;;;5023641;28;20097;-48
2023/08/20 13:38:28;;;;;;;5.18;1.00;;;;;;;;;;5025507;28;20054;-47
2023/08/20 13:40:55;;;;;;;2.17;1.10;;;;;;;;;;5020345;28;20062;-42
2023/08/20 13:43:23;;;;;;;7.13;1.55;;;;;;;;;;5017809;28;20061;-45
2023/08/20 13:45:49;;;;;;;6.25;1.10;;;;;;;;;;5022582;28;20088;-42
2023/08/20 13:48:15;;;;;;;2.92;1.10;;;;;;;;;;5033970;28;20124;-42
2023/08/20 13:50:42;;;;;;;4.78;1.52;;;;;;;;;;5021789;28;20552;-44
2023/08/20 13:53:10;;;;;;;5.47;2.00;;;;;;;;;;5022838;28;20101;-46
2023/08/20 13:55:36;;;;;;;5.43;2.15;;;;;;;;;;5023758;28;20093;-66
2023/08/20 13:58:03;;;;;;;4.40;1.55;;;;;;;;;;5018689;28;20066;-66
2023/08/20 14:00:29;;;;;;;3.00;1.35;;;;;;;;;;5028028;28;20578;-70
2023/08/20 14:02:57;;;;;;;4.55;1.17;;;;;;;;;;5024077;28;20062;-68
2023/08/20 14:05:24;;;;;;;3.28;1.25;;;;;;;;;;5014972;28;20209;-68
2023/08/20 14:07:50;;;;;;;4.47;1.23;;;;;;;;;;5017532;28;20061;-66
2023/08/20 14:10:16;;;;;;;3.63;1.10;;;;;;;;;;5020927;28;20054;-63
2023/08/20 14:12:43;;;;;;;5.15;1.73;;;;;;;;;;5011547;28;20054;-66
2023/08/20 14:15:10;;;;;;;3.92;1.00;;;;;;;;;;5022537;28;20054;-65
2023/08/20 14:17:36;;;;;;;4.70;1.30;;;;;;;;;;5024676;28;20061;-62
2023/08/20 14:20:03;;;;;;;3.88;1.40;;;;;;;;;;5025400;28;20059;-62
2023/08/20 14:22:29;;;;;;;3.35;1.02;;;;;;;;;;5030166;28;20100;-66
2023/08/20 14:24:56;;;;;;;2.90;0.88;;;;;;;;;;5023160;28;20108;-66
2023/08/20 14:27:22;;;;;;;4.05;1.17;;;;;;;;;;5021977;28;20061;-65
2023/08/20 14:29:49;;;;;;;3.45;1.00;;;;;;;;;;5023442;28;20152;-65
2023/08/20 14:32:15;;;;;;;4.22;1.20;;;;;;;;;;5018280;28;20046;-66
2023/08/20 14:34:42;;;;;;;3.60;1.23;;;;;;;;;;5043374;28;20064;-66
2023/08/20 14:37:10;;;;;;;3.70;0.90;;;;;;;;;;5023858;28;20089;-63
2023/08/20 14:39:36;;;;;;;3.33;1.10;;;;;;;;;;5012784;28;20394;-63